sensor_id;sensor_type;location;lat;lon;timestamp;pressure;altitude;pressure_sealevel;temperature
18474;BMP180;30265;52.408;13.500;2022-07-12T00:05:38;101929.00;;;12.90
18474;BMP180;30265;52.408;13.500;2022-07-12T00:15:59;101941.00;;;12.60
18474;BMP180;30265;52.408;13.500;2022-07-12T00:26:22;101929.00;;;12.60
18474;BMP180;30265;52.408;13.500;2022-07-12T00:36:44;101934.00;;;12.60
18474;BMP180;30265;52.408;13.500;2022-07-12T00:47:19;101962.00;;;12.30
18474;BMP180;30265;52.408;13.500;2022-07-12T00:57:46;101952.00;;;12.30
18474;BMP180;30265;52.408;13.500;2022-07-12T01:08:11;101959.00;;;12.10
18474;BMP180;30265;52.408;13.500;2022-07-12T01:18:33;101956.00;;;11.90
18474;BMP180;30265;52.408;13.500;2022-07-12T01:28:57;101950.00;;;12.00
18474;BMP180;30265;52.408;13.500;2022-07-12T01:39:20;101964.00;;;12.00
18474;BMP180;30265;52.408;13.500;2022-07-12T01:49:43;101957.00;;;11.50
18474;BMP180;30265;52.408;13.500;2022-07-12T02:00:06;101963.00;;;11.40
18474;BMP180;30265;52.408;13.500;2022-07-12T02:10:29;101963.00;;;11.40
18474;BMP180;30265;52.408;13.500;2022-07-12T02:20:51;101965.00;;;11.40
18474;BMP180;30265;52.408;13.500;2022-07-12T02:31:14;101973.00;;;11.20
18474;BMP180;30265;52.408;13.500;2022-07-12T02:41:37;101975.00;;;11.00
18474;BMP180;30265;52.408;13.500;2022-07-12T02:52:00;101971.00;;;10.90
18474;BMP180;30265;52.408;13.500;2022-07-12T03:02:22;101964.00;;;11.10
18474;BMP180;30265;52.408;13.500;2022-07-12T03:12:45;101979.00;;;11.10
18474;BMP180;30265;52.408;13.500;2022-07-12T03:23:08;101985.00;;;12.50
18474;BMP180;30265;52.408;13.500;2022-07-12T03:33:31;101987.00;;;13.00
18474;BMP180;30265;52.408;13.500;2022-07-12T03:43:53;101993.00;;;13.20
18474;BMP180;30265;52.408;13.500;2022-07-12T03:54:15;101996.00;;;13.30
18474;BMP180;30265;52.408;13.500;2022-07-12T04:04:37;101999.00;;;13.70
18474;BMP180;30265;52.408;13.500;2022-07-12T04:15:00;102015.00;;;14.10
18474;BMP180;30265;52.408;13.500;2022-07-12T04:25:22;102000.00;;;14.60
18474;BMP180;30265;52.408;13.500;2022-07-12T04:35:46;101999.00;;;15.40
18474;BMP180;30265;52.408;13.500;2022-07-12T04:46:08;102003.00;;;16.40
18474;BMP180;30265;52.408;13.500;2022-07-12T04:56:32;102013.00;;;16.90
18474;BMP180;30265;52.408;13.500;2022-07-12T05:06:54;102011.00;;;17.10
18474;BMP180;30265;52.408;13.500;2022-07-12T05:17:20;102015.00;;;17.40
18474;BMP180;30265;52.408;13.500;2022-07-12T05:27:42;102017.00;;;17.80
18474;BMP180;30265;52.408;13.500;2022-07-12T05:38:06;102031.00;;;18.40
18474;BMP180;30265;52.408;13.500;2022-07-12T05:48:28;102038.00;;;18.80
18474;BMP180;30265;52.408;13.500;2022-07-12T05:58:51;102040.00;;;19.30
18474;BMP180;30265;52.408;13.500;2022-07-12T06:09:13;102041.00;;;19.50
18474;BMP180;30265;52.408;13.500;2022-07-12T06:19:36;102050.00;;;20.10
18474;BMP180;30265;52.408;13.500;2022-07-12T06:29:57;102055.00;;;20.60
18474;BMP180;30265;52.408;13.500;2022-07-12T06:40:21;102050.00;;;20.20
18474;BMP180;30265;52.408;13.500;2022-07-12T06:50:42;102054.00;;;20.90
18474;BMP180;30265;52.408;13.500;2022-07-12T07:01:06;102042.00;;;21.20
18474;BMP180;30265;52.408;13.500;2022-07-12T07:11:28;102036.00;;;21.50
18474;BMP180;30265;52.408;13.500;2022-07-12T07:21:51;102032.00;;;21.40
18474;BMP180;30265;52.408;13.500;2022-07-12T07:32:17;102038.00;;;22.30
18474;BMP180;30265;52.408;13.500;2022-07-12T07:42:40;102039.00;;;22.20
18474;BMP180;30265;52.408;13.500;2022-07-12T07:53:02;102044.00;;;23.00
18474;BMP180;30265;52.408;13.500;2022-07-12T08:03:26;102018.00;;;21.90
18474;BMP180;30265;52.408;13.500;2022-07-12T08:13:51;102025.00;;;22.10
18474;BMP180;30265;52.408;13.500;2022-07-12T08:24:14;102028.00;;;23.10
18474;BMP180;30265;52.408;13.500;2022-07-12T08:34:36;102042.00;;;22.30
18474;BMP180;30265;52.408;13.500;2022-07-12T08:45:08;102036.00;;;23.40
18474;BMP180;30265;52.408;13.500;2022-07-12T08:55:33;102029.00;;;23.00
18474;BMP180;30265;52.408;13.500;2022-07-12T09:05:57;102033.00;;;24.10
18474;BMP180;30265;52.408;13.500;2022-07-12T09:16:21;102020.00;;;24.50
18474;BMP180;30265;52.408;13.500;2022-07-12T09:26:45;102019.00;;;24.30
18474;BMP180;30265;52.408;13.500;2022-07-12T09:37:06;102026.00;;;24.40
18474;BMP180;30265;52.408;13.500;2022-07-12T09:47:32;102003.00;;;24.00
18474;BMP180;30265;52.408;13.500;2022-07-12T09:57:55;102005.00;;;25.60
18474;BMP180;30265;52.408;13.500;2022-07-12T10:08:19;102015.00;;;24.50
18474;BMP180;30265;52.408;13.500;2022-07-12T10:18:41;102006.00;;;24.20
18474;BMP180;30265;52.408;13.500;2022-07-12T10:29:06;102001.00;;;24.90
18474;BMP180;30265;52.408;13.500;2022-07-12T10:39:28;101996.00;;;25.10
18474;BMP180;30265;52.408;13.500;2022-07-12T10:50:00;102000.00;;;26.20
18474;BMP180;30265;52.408;13.500;2022-07-12T11:00:22;102028.00;;;23.60
18474;BMP180;30265;52.408;13.500;2022-07-12T11:10:55;102005.00;;;24.60
18474;BMP180;30265;52.408;13.500;2022-07-12T11:21:18;102018.00;;;25.80
18474;BMP180;30265;52.408;13.500;2022-07-12T11:31:41;102011.00;;;26.20
18474;BMP180;30265;52.408;13.500;2022-07-12T11:42:04;101986.00;;;26.10
18474;BMP180;30265;52.408;13.500;2022-07-12T11:52:28;102004.00;;;25.30
18474;BMP180;30265;52.408;13.500;2022-07-12T12:02:51;101993.00;;;25.60
18474;BMP180;30265;52.408;13.500;2022-07-12T12:13:18;101982.00;;;26.00
18474;BMP180;30265;52.408;13.500;2022-07-12T12:23:41;101973.00;;;27.40
18474;BMP180;30265;52.408;13.500;2022-07-12T12:34:12;101972.00;;;26.00
18474;BMP180;30265;52.408;13.500;2022-07-12T12:44:34;101979.00;;;27.30
18474;BMP180;30265;52.408;13.500;2022-07-12T12:54:58;101976.00;;;26.60
18474;BMP180;30265;52.408;13.500;2022-07-12T13:05:41;101953.00;;;27.30
18474;BMP180;30265;52.408;13.500;2022-07-12T13:16:05;101926.00;;;28.90
18474;BMP180;30265;52.408;13.500;2022-07-12T13:26:30;101951.00;;;28.20
18474;BMP180;30265;52.408;13.500;2022-07-12T13:36:55;101953.00;;;28.00
18474;BMP180;30265;52.408;13.500;2022-07-12T13:47:18;101938.00;;;27.70
18474;BMP180;30265;52.408;13.500;2022-07-12T13:57:43;101934.00;;;26.90
18474;BMP180;30265;52.408;13.500;2022-07-12T14:08:20;101923.00;;;27.10
18474;BMP180;30265;52.408;13.500;2022-07-12T14:18:51;101905.00;;;27.30
18474;BMP180;30265;52.408;13.500;2022-07-12T14:29:15;101921.00;;;28.40
18474;BMP180;30265;52.408;13.500;2022-07-12T14:39:55;101928.00;;;28.00
18474;BMP180;30265;52.408;13.500;2022-07-12T14:50:23;101918.00;;;27.10
18474;BMP180;30265;52.408;13.500;2022-07-12T15:00:47;101927.00;;;26.90
18474;BMP180;30265;52.408;13.500;2022-07-12T15:11:14;101898.00;;;27.60
18474;BMP180;30265;52.408;13.500;2022-07-12T15:21:53;101919.00;;;28.10
18474;BMP180;30265;52.408;13.500;2022-07-12T15:32:39;101915.00;;;27.60
18474;BMP180;30265;52.408;13.500;2022-07-12T15:43:04;101910.00;;;28.20
18474;BMP180;30265;52.408;13.500;2022-07-12T15:53:28;101914.00;;;27.50
18474;BMP180;30265;52.408;13.500;2022-07-12T16:03:52;101889.00;;;27.40
18474;BMP180;30265;52.408;13.500;2022-07-12T16:14:24;101864.00;;;27.20
18474;BMP180;30265;52.408;13.500;2022-07-12T16:24:51;101869.00;;;27.10
18474;BMP180;30265;52.408;13.500;2022-07-12T16:35:13;101876.00;;;27.30
18474;BMP180;30265;52.408;13.500;2022-07-12T16:45:37;101880.00;;;27.50
18474;BMP180;30265;52.408;13.500;2022-07-12T16:56:00;101871.00;;;27.60
18474;BMP180;30265;52.408;13.500;2022-07-12T17:06:24;101877.00;;;27.40
18474;BMP180;30265;52.408;13.500;2022-07-12T17:16:48;101852.00;;;27.40
18474;BMP180;30265;52.408;13.500;2022-07-12T17:27:12;101860.00;;;26.80
18474;BMP180;30265;52.408;13.500;2022-07-12T17:37:37;101872.00;;;26.40
18474;BMP180;30265;52.408;13.500;2022-07-12T17:48:04;101870.00;;;26.80
18474;BMP180;30265;52.408;13.500;2022-07-12T17:58:26;101852.00;;;26.70
18474;BMP180;30265;52.408;13.500;2022-07-12T18:09:06;101848.00;;;26.50
18474;BMP180;30265;52.408;13.500;2022-07-12T18:19:28;101842.00;;;26.00
18474;BMP180;30265;52.408;13.500;2022-07-12T18:29:51;101843.00;;;26.00
18474;BMP180;30265;52.408;13.500;2022-07-12T18:40:16;101847.00;;;25.30
18474;BMP180;30265;52.408;13.500;2022-07-12T18:50:39;101846.00;;;25.00
18474;BMP180;30265;52.408;13.500;2022-07-12T19:01:01;101844.00;;;24.70
18474;BMP180;30265;52.408;13.500;2022-07-12T19:11:24;101856.00;;;24.70
18474;BMP180;30265;52.408;13.500;2022-07-12T19:21:46;101848.00;;;24.10
18474;BMP180;30265;52.408;13.500;2022-07-12T19:32:10;101864.00;;;23.80
18474;BMP180;30265;52.408;13.500;2022-07-12T19:42:32;101873.00;;;23.40
18474;BMP180;30265;52.408;13.500;2022-07-12T19:52:55;101877.00;;;23.10
18474;BMP180;30265;52.408;13.500;2022-07-12T20:03:18;101882.00;;;23.10
18474;BMP180;30265;52.408;13.500;2022-07-12T20:13:42;101876.00;;;22.80
18474;BMP180;30265;52.408;13.500;2022-07-12T20:24:06;101889.00;;;22.30
18474;BMP180;30265;52.408;13.500;2022-07-12T20:34:29;101890.00;;;22.20
18474;BMP180;30265;52.408;13.500;2022-07-12T20:44:51;101898.00;;;22.10
18474;BMP180;30265;52.408;13.500;2022-07-12T20:55:15;101902.00;;;22.00
18474;BMP180;30265;52.408;13.500;2022-07-12T21:05:42;101898.00;;;21.70
18474;BMP180;30265;52.408;13.500;2022-07-12T21:16:07;101912.00;;;21.70
18474;BMP180;30265;52.408;13.500;2022-07-12T21:26:30;101908.00;;;21.50
18474;BMP180;30265;52.408;13.500;2022-07-12T21:36:57;101895.00;;;21.30
18474;BMP180;30265;52.408;13.500;2022-07-12T21:47:20;101917.00;;;21.00
18474;BMP180;30265;52.408;13.500;2022-07-12T21:57:48;101884.00;;;20.10
18474;BMP180;30265;52.408;13.500;2022-07-12T22:08:10;101902.00;;;19.10
18474;BMP180;30265;52.408;13.500;2022-07-12T22:18:35;101909.00;;;18.60
18474;BMP180;30265;52.408;13.500;2022-07-12T22:28:57;101897.00;;;18.80
18474;BMP180;30265;52.408;13.500;2022-07-12T22:39:20;101902.00;;;18.80
18474;BMP180;30265;52.408;13.500;2022-07-12T22:49:42;101895.00;;;18.20
18474;BMP180;30265;52.408;13.500;2022-07-12T23:00:06;101902.00;;;17.90
18474;BMP180;30265;52.408;13.500;2022-07-12T23:10:32;101886.00;;;17.60
18474;BMP180;30265;52.408;13.500;2022-07-12T23:20:55;101882.00;;;17.60
18474;BMP180;30265;52.408;13.500;2022-07-12T23:31:17;101863.00;;;17.40
18474;BMP180;30265;52.408;13.500;2022-07-12T23:41:41;101900.00;;;16.80
18474;BMP180;30265;52.408;13.500;2022-07-12T23:52:04;101885.00;;;16.90
